Indian Springs, Indiana
Current Conditions -  °F | °C
As of 4:15 AM on Saturday 25 Oct 2014 (Local Time) from KDCY Reporting Station
Overcast Overcast  
Wind Chill: 13°   Ceiling: 3800
Heat Index: 13°   Visibility: 10mi
Dew Point: 12°   Wind: 8mph
Humidity: 91%   Direction: 180°S
Pressure: 29.98"   Gusts: NA
Location:  38.6262°N, 86.7615°W
Report Text: KDCY 250915Z AUTO 18007KT 10SM OVC038 13/12 A2998 RMK AO2 T01340120
Loading
Personal Weather Stations






























Interactive Weather Map
Tropical Storm Tracking
New forecast layout! Learn more

10-Day Weather Forecast

Advertisements
Track Severe Weather on mobile